sensor_id;sensor_type;location;lat;lon;timestamp;pressure;altitude;pressure_sealevel;temperature;humidity
10716;BME280;5409;42.620;23.316;2023-11-19T00:00:06;92024.50;;;5.30;84.37
10716;BME280;5409;42.620;23.316;2023-11-19T00:02:37;92077.97;;;5.42;84.42
10716;BME280;5409;42.620;23.316;2023-11-19T00:05:04;92087.19;;;5.44;84.95
10716;BME280;5409;42.620;23.316;2023-11-19T00:07:32;92063.97;;;5.47;84.70
10716;BME280;5409;42.620;23.316;2023-11-19T00:10:01;92074.31;;;5.52;83.91
10716;BME280;5409;42.620;23.316;2023-11-19T00:12:37;92082.47;;;5.48;84.06
10716;BME280;5409;42.620;23.316;2023-11-19T00:15:04;92077.34;;;5.54;83.70
10716;BME280;5409;42.620;23.316;2023-11-19T00:17:32;92088.44;;;5.40;84.36
10716;BME280;5409;42.620;23.316;2023-11-19T00:19:58;92062.41;;;5.26;84.86
10716;BME280;5409;42.620;23.316;2023-11-19T00:22:25;92082.91;;;5.24;84.54
10716;BME280;5409;42.620;23.316;2023-11-19T00:24:51;92069.91;;;5.38;84.17
10716;BME280;5409;42.620;23.316;2023-11-19T00:27:19;92074.84;;;5.43;84.26
10716;BME280;5409;42.620;23.316;2023-11-19T00:29:46;92082.25;;;5.39;84.13
10716;BME280;5409;42.620;23.316;2023-11-19T00:32:13;92079.97;;;5.38;84.39
10716;BME280;5409;42.620;23.316;2023-11-19T00:34:40;92082.72;;;5.34;84.71
10716;BME280;5409;42.620;23.316;2023-11-19T00:37:07;92091.94;;;5.37;84.73
10716;BME280;5409;42.620;23.316;2023-11-19T00:39:34;92082.59;;;5.41;84.44
10716;BME280;5409;42.620;23.316;2023-11-19T00:42:00;92104.50;;;5.47;83.96
10716;BME280;5409;42.620;23.316;2023-11-19T00:44:28;92096.13;;;5.41;84.14
10716;BME280;5409;42.620;23.316;2023-11-19T00:46:55;92103.13;;;5.39;83.97
10716;BME280;5409;42.620;23.316;2023-11-19T00:49:22;92094.34;;;5.31;84.46
10716;BME280;5409;42.620;23.316;2023-11-19T00:51:48;92102.34;;;5.38;84.42
10716;BME280;5409;42.620;23.316;2023-11-19T00:54:15;92096.81;;;5.45;84.10
10716;BME280;5409;42.620;23.316;2023-11-19T00:56:42;92093.41;;;5.41;84.22
10716;BME280;5409;42.620;23.316;2023-11-19T00:59:10;92114.31;;;5.37;84.79
10716;BME280;5409;42.620;23.316;2023-11-19T01:01:38;92098.06;;;5.41;84.78
10716;BME280;5409;42.620;23.316;2023-11-19T01:04:05;92094.59;;;5.40;84.39
10716;BME280;5409;42.620;23.316;2023-11-19T01:06:32;92108.88;;;5.41;84.66
10716;BME280;5409;42.620;23.316;2023-11-19T01:08:59;92101.22;;;5.36;85.46
10716;BME280;5409;42.620;23.316;2023-11-19T01:11:26;92104.84;;;5.49;84.98
10716;BME280;5409;42.620;23.316;2023-11-19T01:13:53;92086.50;;;5.17;85.27
10716;BME280;5409;42.620;23.316;2023-11-19T01:16:20;92112.34;;;5.41;85.27
10716;BME280;5409;42.620;23.316;2023-11-19T01:18:49;92095.88;;;5.32;85.83
10716;BME280;5409;42.620;23.316;2023-11-19T01:21:15;92093.53;;;5.34;85.77
10716;BME280;5409;42.620;23.316;2023-11-19T01:23:42;92082.91;;;5.24;85.11
10716;BME280;5409;42.620;23.316;2023-11-19T01:26:09;92100.00;;;5.40;85.19
10716;BME280;5409;42.620;23.316;2023-11-19T01:28:37;92098.88;;;5.38;84.91
10716;BME280;5409;42.620;23.316;2023-11-19T01:31:05;92097.59;;;5.46;84.80
10716;BME280;5409;42.620;23.316;2023-11-19T01:33:33;92100.31;;;5.46;84.89
10716;BME280;5409;42.620;23.316;2023-11-19T01:36:04;92099.59;;;5.42;84.37
10716;BME280;5409;42.620;23.316;2023-11-19T01:38:31;92104.47;;;5.27;85.31
10716;BME280;5409;42.620;23.316;2023-11-19T01:40:57;92077.84;;;5.26;84.23
10716;BME280;5409;42.620;23.316;2023-11-19T01:43:34;92094.59;;;5.40;84.28
10716;BME280;5409;42.620;23.316;2023-11-19T01:46:01;92064.34;;;5.26;83.82
10716;BME280;5409;42.620;23.316;2023-11-19T01:48:28;92083.59;;;5.51;83.82
10716;BME280;5409;42.620;23.316;2023-11-19T01:50:56;92082.25;;;5.39;84.09
10716;BME280;5409;42.620;23.316;2023-11-19T01:53:25;92094.13;;;5.45;83.52
10716;BME280;5409;42.620;23.316;2023-11-19T01:55:52;92095.47;;;5.34;84.15
10716;BME280;5409;42.620;23.316;2023-11-19T01:58:19;92095.41;;;5.37;83.39
10716;BME280;5409;42.620;23.316;2023-11-19T02:00:46;92099.06;;;5.27;83.57
10716;BME280;5409;42.620;23.316;2023-11-19T02:03:14;92093.72;;;5.24;83.31
10716;BME280;5409;42.620;23.316;2023-11-19T02:05:39;92116.84;;;5.25;83.15
10716;BME280;5409;42.620;23.316;2023-11-19T02:08:06;92104.13;;;5.25;82.81
10716;BME280;5409;42.620;23.316;2023-11-19T02:10:34;92099.47;;;5.26;83.14
10716;BME280;5409;42.620;23.316;2023-11-19T02:13:01;92108.84;;;5.18;83.76
10716;BME280;5409;42.620;23.316;2023-11-19T02:15:30;92087.34;;;5.11;83.36
10716;BME280;5409;42.620;23.316;2023-11-19T02:17:57;92097.81;;;5.32;82.39
10716;BME280;5409;42.620;23.316;2023-11-19T02:20:43;92097.13;;;5.28;82.26
10716;BME280;5409;42.620;23.316;2023-11-19T02:23:10;92106.63;;;5.36;82.19
10716;BME280;5409;42.620;23.316;2023-11-19T02:25:38;92095.88;;;5.32;81.96
10716;BME280;5409;42.620;23.316;2023-11-19T02:28:08;92106.69;;;5.32;82.00
10716;BME280;5409;42.620;23.316;2023-11-19T02:30:37;92107.81;;;5.35;82.00
10716;BME280;5409;42.620;23.316;2023-11-19T02:33:04;92112.06;;;5.36;81.33
10716;BME280;5409;42.620;23.316;2023-11-19T02:35:32;92105.47;;;5.37;81.04
10716;BME280;5409;42.620;23.316;2023-11-19T02:37:59;92101.16;;;5.39;81.04
10716;BME280;5409;42.620;23.316;2023-11-19T02:40:29;92088.53;;;5.33;81.18
10716;BME280;5409;42.620;23.316;2023-11-19T02:42:56;92099.28;;;5.36;81.05
10716;BME280;5409;42.620;23.316;2023-11-19T02:45:25;92095.47;;;5.34;80.39
10716;BME280;5409;42.620;23.316;2023-11-19T02:47:52;92084.66;;;5.34;80.30
10716;BME280;5409;42.620;23.316;2023-11-19T02:50:20;92098.53;;;5.36;80.58
10716;BME280;5409;42.620;23.316;2023-11-19T02:52:51;92102.53;;;5.28;80.49
10716;BME280;5409;42.620;23.316;2023-11-19T02:55:18;92111.44;;;5.25;80.48
10716;BME280;5409;42.620;23.316;2023-11-19T02:57:45;92088.78;;;5.19;80.55
10716;BME280;5409;42.620;23.316;2023-11-19T03:00:15;92098.75;;;5.22;80.27
10716;BME280;5409;42.620;23.316;2023-11-19T03:02:44;92092.97;;;5.23;80.42
10716;BME280;5409;42.620;23.316;2023-11-19T03:05:11;92082.91;;;5.24;80.14
10716;BME280;5409;42.620;23.316;2023-11-19T03:07:40;92080.31;;;5.17;80.41
10716;BME280;5409;42.620;23.316;2023-11-19T03:10:08;92077.25;;;5.15;80.64
10716;BME280;5409;42.620;23.316;2023-11-19T03:12:37;92085.13;;;5.06;80.81
10716;BME280;5409;42.620;23.316;2023-11-19T03:15:05;92089.22;;;5.14;80.79
10716;BME280;5409;42.620;23.316;2023-11-19T03:17:32;92101.81;;;5.01;81.56
10716;BME280;5409;42.620;23.316;2023-11-19T03:20:00;92073.97;;;5.04;81.09
10716;BME280;5409;42.620;23.316;2023-11-19T03:22:27;92094.78;;;5.07;81.54
10716;BME280;5409;42.620;23.316;2023-11-19T03:24:54;92095.97;;;5.02;81.20
10716;BME280;5409;42.620;23.316;2023-11-19T03:27:20;92093.59;;;5.08;81.10
10716;BME280;5409;42.620;23.316;2023-11-19T03:29:47;92100.09;;;5.10;81.28
10716;BME280;5409;42.620;23.316;2023-11-19T03:32:14;92086.25;;;5.08;80.76
10716;BME280;5409;42.620;23.316;2023-11-19T03:34:40;92089.94;;;5.18;80.56
10716;BME280;5409;42.620;23.316;2023-11-19T03:37:08;92067.88;;;5.00;80.69
10716;BME280;5409;42.620;23.316;2023-11-19T03:39:35;92066.44;;;4.92;80.76
10716;BME280;5409;42.620;23.316;2023-11-19T03:42:02;92096.97;;;5.12;80.95
10716;BME280;5409;42.620;23.316;2023-11-19T03:44:29;92098.16;;;5.11;81.01
10716;BME280;5409;42.620;23.316;2023-11-19T03:46:56;92092.19;;;5.00;81.49
10716;BME280;5409;42.620;23.316;2023-11-19T03:49:22;92109.75;;;5.11;81.36
10716;BME280;5409;42.620;23.316;2023-11-19T03:51:50;92109.91;;;5.01;81.20
10716;BME280;5409;42.620;23.316;2023-11-19T03:54:18;92112.97;;;5.03;81.79
10716;BME280;5409;42.620;23.316;2023-11-19T03:56:45;92120.66;;;5.04;81.89
10716;BME280;5409;42.620;23.316;2023-11-19T03:59:12;92143.84;;;5.02;82.44
10716;BME280;5409;42.620;23.316;2023-11-19T04:01:40;92140.78;;;5.00;82.27
10716;BME280;5409;42.620;23.316;2023-11-19T04:04:07;92142.25;;;5.04;82.44
10716;BME280;5409;42.620;23.316;2023-11-19T04:06:33;92137.56;;;5.08;82.44
10716;BME280;5409;42.620;23.316;2023-11-19T04:09:01;92138.34;;;5.09;82.12
10716;BME280;5409;42.620;23.316;2023-11-19T04:11:29;92133.63;;;5.13;82.42
10716;BME280;5409;42.620;23.316;2023-11-19T04:13:56;92143.75;;;5.09;82.84
10716;BME280;5409;42.620;23.316;2023-11-19T04:16:26;92146.84;;;5.07;83.04
10716;BME280;5409;42.620;23.316;2023-11-19T04:18:54;92137.56;;;5.08;82.47
10716;BME280;5409;42.620;23.316;2023-11-19T04:21:20;92140.09;;;5.19;82.42
10716;BME280;5409;42.620;23.316;2023-11-19T04:23:48;92140.69;;;5.07;83.09
10716;BME280;5409;42.620;23.316;2023-11-19T04:26:15;92124.22;;;4.98;83.77
10716;BME280;5409;42.620;23.316;2023-11-19T04:28:43;92126.22;;;4.94;83.71
10716;BME280;5409;42.620;23.316;2023-11-19T04:31:10;92105.78;;;4.93;83.19
10716;BME280;5409;42.620;23.316;2023-11-19T04:33:36;92104.34;;;4.85;83.33
10716;BME280;5409;42.620;23.316;2023-11-19T04:36:04;92097.69;;;4.93;83.59
10716;BME280;5409;42.620;23.316;2023-11-19T04:38:30;92134.13;;;4.81;84.36
10716;BME280;5409;42.620;23.316;2023-11-19T04:40:57;92120.25;;;4.79;83.96
10716;BME280;5409;42.620;23.316;2023-11-19T04:43:24;92122.53;;;4.81;83.86
10716;BME280;5409;42.620;23.316;2023-11-19T04:45:52;92127.50;;;4.86;83.01
10716;BME280;5409;42.620;23.316;2023-11-19T04:48:19;92126.28;;;4.90;82.37
10716;BME280;5409;42.620;23.316;2023-11-19T04:50:45;92128.66;;;4.85;82.14
10716;BME280;5409;42.620;23.316;2023-11-19T04:53:12;92141.97;;;4.99;81.91
10716;BME280;5409;42.620;23.316;2023-11-19T04:55:40;92143.03;;;5.05;81.55
10716;BME280;5409;42.620;23.316;2023-11-19T04:58:07;92152.69;;;5.02;81.70
10716;BME280;5409;42.620;23.316;2023-11-19T05:00:34;92163.13;;;5.04;81.64
10716;BME280;5409;42.620;23.316;2023-11-19T05:03:02;92165.91;;;4.97;81.19
10716;BME280;5409;42.620;23.316;2023-11-19T05:05:29;92173.66;;;4.95;81.88
10716;BME280;5409;42.620;23.316;2023-11-19T05:07:56;92185.47;;;5.04;81.23
10716;BME280;5409;42.620;23.316;2023-11-19T05:10:22;92186.16;;;4.85;81.62
10716;BME280;5409;42.620;23.316;2023-11-19T05:12:50;92205.06;;;4.82;82.55
10716;BME280;5409;42.620;23.316;2023-11-19T05:15:17;92207.09;;;4.74;82.66
10716;BME280;5409;42.620;23.316;2023-11-19T05:17:43;92195.81;;;4.83;82.40
10716;BME280;5409;42.620;23.316;2023-11-19T05:20:12;92200.25;;;4.66;82.51
10716;BME280;5409;42.620;23.316;2023-11-19T05:22:39;92188.94;;;4.78;82.52
10716;BME280;5409;42.620;23.316;2023-11-19T05:25:07;92188.06;;;4.85;81.95
10716;BME280;5409;42.620;23.316;2023-11-19T05:27:34;92183.38;;;4.89;81.51
10716;BME280;5409;42.620;23.316;2023-11-19T05:30:01;92179.66;;;4.79;81.78
10716;BME280;5409;42.620;23.316;2023-11-19T05:32:28;92177.16;;;4.92;81.29
10716;BME280;5409;42.620;23.316;2023-11-19T05:34:54;92174.88;;;4.90;81.13
10716;BME280;5409;42.620;23.316;2023-11-19T05:37:23;92180.28;;;4.90;80.94
10716;BME280;5409;42.620;23.316;2023-11-19T05:39:50;92187.66;;;4.86;81.72
10716;BME280;5409;42.620;23.316;2023-11-19T05:42:17;92185.38;;;4.85;81.64
10716;BME280;5409;42.620;23.316;2023-11-19T05:44:44;92191.78;;;4.94;81.40
10716;BME280;5409;42.620;23.316;2023-11-19T05:47:11;92188.78;;;4.89;81.26
10716;BME280;5409;42.620;23.316;2023-11-19T05:49:38;92192.81;;;4.77;81.61
10716;BME280;5409;42.620;23.316;2023-11-19T05:52:05;92187.91;;;4.95;81.25
10716;BME280;5409;42.620;23.316;2023-11-19T05:54:34;92183.81;;;4.87;81.40
10716;BME280;5409;42.620;23.316;2023-11-19T05:57:03;92182.72;;;4.81;81.90
10716;BME280;5409;42.620;23.316;2023-11-19T05:59:30;92190.66;;;4.92;81.40
10716;BME280;5409;42.620;23.316;2023-11-19T06:01:58;92165.09;;;4.73;81.21
10716;BME280;5409;42.620;23.316;2023-11-19T06:04:25;92194.59;;;4.87;81.54
10716;BME280;5409;42.620;23.316;2023-11-19T06:06:52;92198.63;;;5.02;81.19
10716;BME280;5409;42.620;23.316;2023-11-19T06:09:20;92208.91;;;5.11;81.43
10716;BME280;5409;42.620;23.316;2023-11-19T06:11:50;92206.00;;;4.98;81.28
10716;BME280;5409;42.620;23.316;2023-11-19T06:14:17;92220.75;;;5.20;80.65
10716;BME280;5409;42.620;23.316;2023-11-19T06:16:44;92209.78;;;5.31;80.57
10716;BME280;5409;42.620;23.316;2023-11-19T06:19:11;92211.31;;;5.32;80.39
10716;BME280;5409;42.620;23.316;2023-11-19T06:21:38;92197.19;;;5.21;81.15
10716;BME280;5409;42.620;23.316;2023-11-19T06:24:06;92189.44;;;5.23;80.64
10716;BME280;5409;42.620;23.316;2023-11-19T06:26:34;92188.28;;;5.24;80.37
10716;BME280;5409;42.620;23.316;2023-11-19T06:29:02;92200.78;;;5.14;80.96
10716;BME280;5409;42.620;23.316;2023-11-19T06:31:29;92213.16;;;5.12;81.02
10716;BME280;5409;42.620;23.316;2023-11-19T06:33:56;92203.50;;;4.84;81.60
10716;BME280;5409;42.620;23.316;2023-11-19T06:36:23;92211.94;;;5.16;81.57
10716;BME280;5409;42.620;23.316;2023-11-19T06:38:50;92202.69;;;5.14;81.46
10716;BME280;5409;42.620;23.316;2023-11-19T06:41:17;92207.28;;;5.17;80.74
10716;BME280;5409;42.620;23.316;2023-11-19T06:43:43;92204.50;;;5.24;80.68
10716;BME280;5409;42.620;23.316;2023-11-19T06:46:18;92208.38;;;5.23;80.51
10716;BME280;5409;42.620;23.316;2023-11-19T06:48:45;92211.25;;;5.35;79.75
10716;BME280;5409;42.620;23.316;2023-11-19T06:51:12;92212.41;;;5.38;79.55
10716;BME280;5409;42.620;23.316;2023-11-19T06:53:39;92207.22;;;5.47;79.18
10716;BME280;5409;42.620;23.316;2023-11-19T06:56:10;92206.19;;;5.63;78.22
10716;BME280;5409;42.620;23.316;2023-11-19T06:58:43;92216.19;;;5.66;77.77
10716;BME280;5409;42.620;23.316;2023-11-19T07:01:10;92227.06;;;5.63;77.55
10716;BME280;5409;42.620;23.316;2023-11-19T07:03:38;92226.84;;;5.51;77.76
10716;BME280;5409;42.620;23.316;2023-11-19T07:06:05;92234.56;;;5.52;77.51
10716;BME280;5409;42.620;23.316;2023-11-19T07:08:32;92221.41;;;5.54;77.65
10716;BME280;5409;42.620;23.316;2023-11-19T07:10:59;92214.75;;;5.58;77.18
10716;BME280;5409;42.620;23.316;2023-11-19T07:13:26;92236.47;;;5.81;76.59
10716;BME280;5409;42.620;23.316;2023-11-19T07:15:53;92237.13;;;5.85;75.66
10716;BME280;5409;42.620;23.316;2023-11-19T07:18:20;92233.63;;;5.88;75.33
10716;BME280;5409;42.620;23.316;2023-11-19T07:20:48;92245.38;;;6.01;75.42
10716;BME280;5409;42.620;23.316;2023-11-19T07:23:15;92235.94;;;5.90;75.24
10716;BME280;5409;42.620;23.316;2023-11-19T07:25:42;92220.22;;;5.81;75.18
10716;BME280;5409;42.620;23.316;2023-11-19T07:28:10;92237.09;;;6.12;74.40
10716;BME280;5409;42.620;23.316;2023-11-19T07:30:37;92246.69;;;6.16;74.34
10716;BME280;5409;42.620;23.316;2023-11-19T07:33:04;92246.81;;;6.09;73.77
10716;BME280;5409;42.620;23.316;2023-11-19T07:35:31;92262.88;;;5.97;74.10
10716;BME280;5409;42.620;23.316;2023-11-19T07:37:59;92277.22;;;5.94;74.23
10716;BME280;5409;42.620;23.316;2023-11-19T07:40:26;92267.75;;;5.82;74.28
10716;BME280;5409;42.620;23.316;2023-11-19T07:42:53;92293.84;;;5.92;74.12
10716;BME280;5409;42.620;23.316;2023-11-19T07:45:19;92270.66;;;5.91;73.34
10716;BME280;5409;42.620;23.316;2023-11-19T07:47:46;92275.25;;;5.94;73.76
10716;BME280;5409;42.620;23.316;2023-11-19T07:50:12;92265.06;;;6.02;74.01
10716;BME280;5409;42.620;23.316;2023-11-19T07:52:39;92269.91;;;6.14;73.56
10716;BME280;5409;42.620;23.316;2023-11-19T07:55:08;92281.38;;;6.44;72.66
10716;BME280;5409;42.620;23.316;2023-11-19T07:57:35;92291.53;;;6.60;71.86
10716;BME280;5409;42.620;23.316;2023-11-19T08:00:02;92285.78;;;6.77;70.97
10716;BME280;5409;42.620;23.316;2023-11-19T08:02:29;92277.53;;;7.03;70.03
10716;BME280;5409;42.620;23.316;2023-11-19T08:04:56;92288.22;;;7.10;68.40
10716;BME280;5409;42.620;23.316;2023-11-19T08:07:22;92298.56;;;7.15;67.93
10716;BME280;5409;42.620;23.316;2023-11-19T08:09:49;92301.56;;;7.01;67.26
10716;BME280;5409;42.620;23.316;2023-11-19T08:12:19;92279.25;;;6.94;66.60
10716;BME280;5409;42.620;23.316;2023-11-19T08:14:46;92291.00;;;7.26;65.56
10716;BME280;5409;42.620;23.316;2023-11-19T08:17:12;92299.72;;;7.34;64.95
10716;BME280;5409;42.620;23.316;2023-11-19T08:19:39;92312.66;;;7.46;64.31
10716;BME280;5409;42.620;23.316;2023-11-19T08:22:06;92311.47;;;7.47;64.38
10716;BME280;5409;42.620;23.316;2023-11-19T08:24:35;92291.69;;;7.11;65.00
10716;BME280;5409;42.620;23.316;2023-11-19T08:27:02;92313.88;;;7.25;65.21
10716;BME280;5409;42.620;23.316;2023-11-19T08:29:30;92310.19;;;6.96;65.55
10716;BME280;5409;42.620;23.316;2023-11-19T08:31:57;92289.47;;;7.06;64.97
10716;BME280;5409;42.620;23.316;2023-11-19T08:34:23;92302.31;;;7.02;65.39
10716;BME280;5409;42.620;23.316;2023-11-19T08:36:51;92290.03;;;7.17;65.26
10716;BME280;5409;42.620;23.316;2023-11-19T08:39:18;92289.13;;;7.23;65.07
10716;BME280;5409;42.620;23.316;2023-11-19T08:41:46;92292.19;;;7.25;65.30
10716;BME280;5409;42.620;23.316;2023-11-19T08:44:13;92310.44;;;7.21;65.65
10716;BME280;5409;42.620;23.316;2023-11-19T08:46:47;92288.72;;;7.05;65.61
10716;BME280;5409;42.620;23.316;2023-11-19T08:49:14;92288.78;;;7.02;67.10
10716;BME280;5409;42.620;23.316;2023-11-19T08:51:41;92287.69;;;6.99;67.36
10716;BME280;5409;42.620;23.316;2023-11-19T08:54:08;92279.81;;;6.85;67.74
10716;BME280;5409;42.620;23.316;2023-11-19T08:56:34;92291.06;;;6.84;67.77
10716;BME280;5409;42.620;23.316;2023-11-19T08:59:01;92284.19;;;6.79;68.31
10716;BME280;5409;42.620;23.316;2023-11-19T09:01:28;92287.56;;;6.64;68.95
10716;BME280;5409;42.620;23.316;2023-11-19T09:03:56;92283.44;;;6.79;69.03
10716;BME280;5409;42.620;23.316;2023-11-19T09:06:23;92274.97;;;6.77;69.39
10716;BME280;5409;42.620;23.316;2023-11-19T09:08:50;92252.09;;;6.59;69.73
10716;BME280;5409;42.620;23.316;2023-11-19T09:11:16;92268.97;;;6.66;69.49
10716;BME280;5409;42.620;23.316;2023-11-19T09:13:43;92255.00;;;6.48;70.11
10716;BME280;5409;42.620;23.316;2023-11-19T09:16:11;92253.16;;;6.42;70.87
10716;BME280;5409;42.620;23.316;2023-11-19T09:18:38;92216.53;;;6.37;70.72
10716;BME280;5409;42.620;23.316;2023-11-19T09:21:06;92238.19;;;6.37;71.31
10716;BME280;5409;42.620;23.316;2023-11-19T09:23:33;92235.47;;;6.37;70.66
10716;BME280;5409;42.620;23.316;2023-11-19T09:26:04;92253.59;;;6.40;70.88
10716;BME280;5409;42.620;23.316;2023-11-19T09:28:31;92272.06;;;6.45;71.27
10716;BME280;5409;42.620;23.316;2023-11-19T09:30:58;92274.13;;;6.38;71.39
10716;BME280;5409;42.620;23.316;2023-11-19T09:33:25;92264.34;;;6.44;70.97
10716;BME280;5409;42.620;23.316;2023-11-19T09:35:52;92246.84;;;6.29;70.73
10716;BME280;5409;42.620;23.316;2023-11-19T09:38:20;92237.56;;;6.30;71.02
10716;BME280;5409;42.620;23.316;2023-11-19T09:40:46;92232.53;;;6.28;71.49
10716;BME280;5409;42.620;23.316;2023-11-19T09:43:14;92229.56;;;6.23;71.94
10716;BME280;5409;42.620;23.316;2023-11-19T09:45:48;92219.44;;;6.27;71.73
10716;BME280;5409;42.620;23.316;2023-11-19T09:48:16;92228.53;;;6.36;71.33
10716;BME280;5409;42.620;23.316;2023-11-19T09:50:44;92221.94;;;6.37;71.47
10716;BME280;5409;42.620;23.316;2023-11-19T09:53:11;92220.75;;;6.38;71.41
10716;BME280;5409;42.620;23.316;2023-11-19T09:55:39;92214.56;;;6.38;71.54
10716;BME280;5409;42.620;23.316;2023-11-19T09:58:07;92204.88;;;6.40;71.50
10716;BME280;5409;42.620;23.316;2023-11-19T10:00:34;92198.69;;;6.40;71.92
10716;BME280;5409;42.620;23.316;2023-11-19T10:03:02;92194.94;;;6.34;72.12
10716;BME280;5409;42.620;23.316;2023-11-19T10:05:30;92186.63;;;6.44;71.76
10716;BME280;5409;42.620;23.316;2023-11-19T10:07:58;92191.69;;;6.42;72.34
10716;BME280;5409;42.620;23.316;2023-11-19T10:10:24;92201.59;;;6.49;72.37
10716;BME280;5409;42.620;23.316;2023-11-19T10:12:52;92195.63;;;6.57;72.53
10716;BME280;5409;42.620;23.316;2023-11-19T10:15:21;92183.91;;;6.64;71.99
10716;BME280;5409;42.620;23.316;2023-11-19T10:17:48;92178.06;;;6.46;72.44
10716;BME280;5409;42.620;23.316;2023-11-19T10:20:15;92186.41;;;6.55;72.32
10716;BME280;5409;42.620;23.316;2023-11-19T10:22:42;92196.19;;;6.49;72.19
10716;BME280;5409;42.620;23.316;2023-11-19T10:25:21;92206.75;;;6.43;71.71
10716;BME280;5409;42.620;23.316;2023-11-19T10:27:48;92210.19;;;6.24;71.87
10716;BME280;5409;42.620;23.316;2023-11-19T10:30:20;92214.56;;;6.18;71.27
10716;BME280;5409;42.620;23.316;2023-11-19T10:33:02;92198.00;;;6.36;70.94
10716;BME280;5409;42.620;23.316;2023-11-19T10:35:29;92192.50;;;6.39;70.62
10716;BME280;5409;42.620;23.316;2023-11-19T10:37:56;92183.06;;;6.28;71.17
10716;BME280;5409;42.620;23.316;2023-11-19T10:40:37;92184.25;;;6.46;70.76
10716;BME280;5409;42.620;23.316;2023-11-19T10:43:05;92187.66;;;6.50;69.99
10716;BME280;5409;42.620;23.316;2023-11-19T10:45:34;92202.16;;;6.60;69.77
10716;BME280;5409;42.620;23.316;2023-11-19T10:48:02;92203.97;;;6.66;69.44
10716;BME280;5409;42.620;23.316;2023-11-19T10:50:29;92189.13;;;6.55;68.32
10716;BME280;5409;42.620;23.316;2023-11-19T10:52:57;92192.38;;;6.46;68.79
10716;BME280;5409;42.620;23.316;2023-11-19T10:55:27;92186.88;;;6.50;68.28
10716;BME280;5409;42.620;23.316;2023-11-19T10:57:58;92166.34;;;6.52;68.13
10716;BME280;5409;42.620;23.316;2023-11-19T11:00:25;92189.53;;;6.53;68.00
10716;BME280;5409;42.620;23.316;2023-11-19T11:02:58;92193.78;;;6.54;67.09
10716;BME280;5409;42.620;23.316;2023-11-19T11:05:26;92191.00;;;6.58;66.77
10716;BME280;5409;42.620;23.316;2023-11-19T11:07:55;92169.47;;;6.51;66.45
10716;BME280;5409;42.620;23.316;2023-11-19T11:10:25;92174.16;;;6.66;66.44
10716;BME280;5409;42.620;23.316;2023-11-19T11:12:52;92169.94;;;6.65;66.48
10716;BME280;5409;42.620;23.316;2023-11-19T11:15:26;92166.34;;;6.72;66.47
10716;BME280;5409;42.620;23.316;2023-11-19T11:17:59;92156.00;;;6.67;66.29
10716;BME280;5409;42.620;23.316;2023-11-19T11:20:27;92153.88;;;6.74;66.16
10716;BME280;5409;42.620;23.316;2023-11-19T11:23:06;92163.91;;;6.77;66.18
10716;BME280;5409;42.620;23.316;2023-11-19T11:25:42;92167.88;;;6.73;65.76
10716;BME280;5409;42.620;23.316;2023-11-19T11:28:21;92167.44;;;6.74;66.10
10716;BME280;5409;42.620;23.316;2023-11-19T11:31:09;92162.97;;;6.83;66.00
10716;BME280;5409;42.620;23.316;2023-11-19T11:33:58;92162.00;;;6.93;65.66
10716;BME280;5409;42.620;23.316;2023-11-19T11:36:30;92152.06;;;6.87;65.72
10716;BME280;5409;42.620;23.316;2023-11-19T11:38:58;92170.13;;;6.93;64.75
10716;BME280;5409;42.620;23.316;2023-11-19T11:41:26;92155.47;;;6.91;64.26
10716;BME280;5409;42.620;23.316;2023-11-19T11:43:53;92145.97;;;6.83;64.60
10716;BME280;5409;42.620;23.316;2023-11-19T11:46:56;92146.81;;;6.96;64.13
10716;BME280;5409;42.620;23.316;2023-11-19T11:49:28;92142.97;;;7.13;63.62
10716;BME280;5409;42.620;23.316;2023-11-19T11:52:01;92144.41;;;7.17;63.79
10716;BME280;5409;42.620;23.316;2023-11-19T11:54:29;92146.53;;;7.10;63.77
10716;BME280;5409;42.620;23.316;2023-11-19T11:57:06;92150.41;;;7.09;63.37
10716;BME280;5409;42.620;23.316;2023-11-19T11:59:46;92155.84;;;7.09;63.18
10716;BME280;5409;42.620;23.316;2023-11-19T12:02:14;92161.16;;;7.12;63.02
10716;BME280;5409;42.620;23.316;2023-11-19T12:04:46;92163.72;;;7.19;62.46
10716;BME280;5409;42.620;23.316;2023-11-19T12:07:16;92154.75;;;7.06;62.63
10716;BME280;5409;42.620;23.316;2023-11-19T12:09:47;92158.06;;;7.14;61.74
10716;BME280;5409;42.620;23.316;2023-11-19T12:12:21;92152.09;;;7.03;61.43
10716;BME280;5409;42.620;23.316;2023-11-19T12:15:05;92152.97;;;7.16;61.64
10716;BME280;5409;42.620;23.316;2023-11-19T12:17:44;92144.69;;;7.23;61.50
10716;BME280;5409;42.620;23.316;2023-11-19T12:20:16;92139.44;;;7.16;61.36
10716;BME280;5409;42.620;23.316;2023-11-19T12:22:44;92134.75;;;7.16;60.60
10716;BME280;5409;42.620;23.316;2023-11-19T12:25:13;92134.50;;;7.11;60.63
10716;BME280;5409;42.620;23.316;2023-11-19T12:27:40;92116.88;;;7.03;60.37
10716;BME280;5409;42.620;23.316;2023-11-19T12:30:08;92128.59;;;7.16;59.48
10716;BME280;5409;42.620;23.316;2023-11-19T12:32:39;92097.31;;;7.11;59.76
10716;BME280;5409;42.620;23.316;2023-11-19T12:35:06;92127.50;;;7.29;60.24
10716;BME280;5409;42.620;23.316;2023-11-19T12:37:43;92110.72;;;7.34;59.52
10716;BME280;5409;42.620;23.316;2023-11-19T12:40:17;92124.44;;;7.27;58.92
10716;BME280;5409;42.620;23.316;2023-11-19T12:42:44;92111.06;;;7.36;59.16
10716;BME280;5409;42.620;23.316;2023-11-19T12:45:11;92089.44;;;7.17;59.44
10716;BME280;5409;42.620;23.316;2023-11-19T12:47:38;92105.22;;;7.22;59.70
10716;BME280;5409;42.620;23.316;2023-11-19T12:50:06;92111.22;;;7.29;59.74
10716;BME280;5409;42.620;23.316;2023-11-19T12:52:34;92108.69;;;7.38;59.44
10716;BME280;5409;42.620;23.316;2023-11-19T12:55:02;92105.13;;;7.25;59.79
10716;BME280;5409;42.620;23.316;2023-11-19T12:57:36;92090.97;;;7.18;59.81
10716;BME280;5409;42.620;23.316;2023-11-19T13:00:04;92104.28;;;7.28;59.90
10716;BME280;5409;42.620;23.316;2023-11-19T13:02:47;92112.84;;;7.27;60.17
10716;BME280;5409;42.620;23.316;2023-11-19T13:05:35;92103.34;;;7.19;60.02
10716;BME280;5409;42.620;23.316;2023-11-19T13:08:04;92106.97;;;7.28;58.98
10716;BME280;5409;42.620;23.316;2023-11-19T13:10:33;92115.88;;;7.29;59.29
10716;BME280;5409;42.620;23.316;2023-11-19T13:13:04;92110.03;;;7.30;57.93
10716;BME280;5409;42.620;23.316;2023-11-19T13:15:31;92115.47;;;7.30;58.33